createdAt,value
2023-03-03T00:03:45.234Z,5.41
2023-03-03T00:08:44.439Z,5.64
2023-03-03T00:13:47.082Z,5.67
2023-03-03T00:18:48.436Z,5.25
2023-03-03T00:23:46.984Z,5.14
2023-03-03T00:28:48.842Z,5.16
2023-03-03T00:33:48.381Z,5.26
2023-03-03T00:38:49.828Z,5.07
2023-03-03T00:43:49.551Z,5.20
2023-03-03T00:48:51.109Z,5.10
2023-03-03T00:53:50.283Z,4.90
2023-03-03T00:58:48.371Z,5.13
2023-03-03T01:03:49.476Z,5.13
2023-03-03T01:08:47.064Z,5.07
2023-03-03T01:13:46.365Z,5.05
2023-03-03T01:18:44.493Z,5.09
2023-03-03T01:23:42.328Z,5.26
2023-03-03T01:28:44.346Z,5.61
2023-03-03T01:33:43.585Z,5.21
2023-03-03T01:38:44.859Z,5.61
2023-03-03T01:43:46.895Z,5.56
2023-03-03T01:48:45.060Z,5.36
2023-03-03T01:53:45.905Z,5.14
2023-03-03T01:58:50.489Z,5.25
2023-03-03T02:03:48.274Z,5.44
2023-03-03T02:08:50.550Z,5.02
2023-03-03T02:13:48.851Z,4.97
2023-03-03T02:18:54.332Z,4.99
2023-03-03T02:23:58.453Z,4.93
2023-03-03T02:29:04.029Z,5.07
2023-03-03T02:34:02.822Z,4.93
2023-03-03T02:39:05.935Z,5.33
2023-03-03T02:44:07.495Z,5.44
2023-03-03T02:49:11.225Z,5.62
2023-03-03T02:54:10.143Z,5.63
2023-03-03T02:59:08.874Z,5.62
2023-03-03T03:04:18.742Z,5.13
2023-03-03T03:09:19.576Z,5.24
2023-03-03T03:14:19.256Z,5.38
2023-03-03T03:19:16.760Z,5.16
2023-03-03T03:24:19.467Z,5.27
2023-03-03T03:29:28.651Z,5.37
2023-03-03T03:34:29.978Z,5.68
2023-03-03T03:39:31.540Z,5.53
2023-03-03T03:44:29.597Z,5.34
2023-03-03T03:49:29.174Z,4.96
2023-03-03T03:54:29.825Z,5.42
2023-03-03T03:59:29.019Z,5.61
2023-03-03T04:04:28.002Z,5.22
2023-03-03T04:09:29.450Z,5.04
2023-03-03T04:14:31.200Z,4.92
2023-03-03T04:19:30.615Z,4.93
2023-03-03T04:24:32.378Z,5.26
2023-03-03T04:29:36.068Z,5.62
2023-03-03T04:34:48.988Z,5.55
2023-03-03T04:39:53.058Z,5.40
2023-03-03T04:44:55.041Z,5.17
2023-03-03T04:50:05.844Z,5.48
2023-03-03T04:55:10.704Z,5.41
2023-03-03T05:00:21.490Z,5.08
2023-03-03T05:05:19.061Z,5.15
2023-03-03T05:10:16.765Z,5.17
2023-03-03T05:15:19.484Z,5.22
2023-03-03T05:20:19.958Z,5.14
2023-03-03T05:25:20.323Z,5.58
2023-03-03T05:30:21.896Z,5.57
2023-03-03T05:35:23.604Z,5.99
2023-03-03T05:40:22.647Z,6.03
2023-03-03T05:45:24.022Z,6.34
2023-03-03T05:50:23.869Z,6.08
2023-03-03T05:55:25.021Z,5.59
2023-03-03T06:00:26.284Z,5.60
2023-03-03T06:05:25.565Z,6.26
2023-03-03T06:10:30.417Z,6.09
2023-03-03T06:15:32.901Z,6.47
2023-03-03T06:20:32.127Z,6.86
2023-03-03T06:25:30.414Z,7.23
2023-03-03T06:30:33.580Z,7.21
2023-03-03T06:35:31.891Z,7.22
2023-03-03T06:40:34.091Z,7.35
2023-03-03T06:45:32.857Z,7.42
2023-03-03T06:50:35.161Z,7.52
2023-03-03T06:55:35.538Z,7.55
2023-03-03T07:00:36.578Z,7.78
2023-03-03T07:05:34.943Z,7.99
2023-03-03T07:10:36.034Z,7.94
2023-03-03T07:15:37.617Z,8.01
2023-03-03T07:20:41.563Z,8.06
2023-03-03T07:25:41.271Z,8.11
2023-03-03T07:30:42.124Z,7.93
2023-03-03T07:35:44.845Z,7.80
2023-03-03T07:40:48.458Z,8.06
2023-03-03T07:45:46.260Z,8.10
2023-03-03T07:50:45.941Z,8.27
2023-03-03T07:55:46.565Z,8.37
2023-03-03T08:00:46.877Z,8.60
2023-03-03T08:05:48.487Z,8.85
2023-03-03T08:10:53.228Z,8.80
2023-03-03T08:16:14.241Z,8.76
2023-03-03T08:21:13.721Z,8.96
2023-03-03T08:26:19.856Z,8.99
2023-03-03T08:31:38.247Z,9.00
2023-03-03T08:36:42.480Z,9.04
2023-03-03T08:41:43.968Z,9.13
2023-03-03T08:46:41.286Z,9.31
2023-03-03T08:51:40.507Z,9.42
2023-03-03T08:56:38.322Z,9.49
2023-03-03T09:01:36.406Z,9.41
2023-03-03T09:06:35.004Z,9.47
2023-03-03T09:11:34.037Z,9.34
2023-03-03T09:16:34.185Z,9.50
2023-03-03T09:21:35.928Z,9.78
2023-03-03T09:26:46.909Z,9.64
2023-03-03T09:31:57.231Z,10.13
2023-03-03T09:37:09.956Z,10.27
2023-03-03T09:42:19.586Z,10.41
2023-03-03T09:47:30.340Z,10.52
2023-03-03T09:52:34.725Z,10.58
2023-03-03T09:57:32.480Z,10.52
2023-03-03T10:02:43.756Z,10.54
2023-03-03T10:07:52.729Z,10.42
2023-03-03T10:13:05.313Z,10.16
2023-03-03T10:18:12.112Z,10.29
2023-03-03T10:23:41.869Z,10.14
2023-03-03T10:28:43.234Z,10.34
2023-03-03T10:33:53.540Z,10.46
2023-03-03T10:39:13.275Z,10.16
2023-03-03T10:44:33.873Z,10.32
2023-03-03T10:50:04.177Z,10.65
2023-03-03T10:55:09.232Z,10.53
2023-03-03T11:00:16.862Z,10.51
2023-03-03T11:05:27.754Z,10.51
2023-03-03T11:10:41.751Z,10.65
2023-03-03T11:15:48.321Z,10.50
2023-03-03T11:21:10.463Z,10.55
2023-03-03T11:26:33.224Z,10.45
2023-03-03T11:31:47.025Z,10.52
2023-03-03T11:37:19.051Z,10.61
2023-03-03T11:42:29.368Z,10.81
2023-03-03T11:47:31.613Z,11.10
2023-03-03T11:52:36.069Z,11.35
2023-03-03T11:57:47.917Z,11.22
2023-03-03T12:08:32.061Z,11.07
2023-03-03T12:13:53.856Z,10.87
2023-03-03T12:19:02.329Z,10.99
2023-03-03T12:24:03.838Z,10.99
2023-03-03T12:29:07.502Z,10.84
2023-03-03T12:34:07.119Z,10.72
2023-03-03T12:39:08.576Z,10.63
2023-03-03T12:44:25.925Z,10.53
2023-03-03T12:49:23.722Z,10.62
2023-03-03T12:54:26.253Z,10.57
2023-03-03T12:59:39.549Z,10.46
2023-03-03T13:04:37.432Z,10.44
2023-03-03T13:09:47.790Z,10.36
2023-03-03T13:15:01.599Z,10.25
2023-03-03T13:20:01.774Z,10.10
2023-03-03T13:25:02.057Z,10.14
2023-03-03T13:30:01.472Z,10.08
2023-03-03T13:35:05.680Z,10.15
2023-03-03T13:40:15.559Z,9.99
2023-03-03T13:45:17.252Z,10.08
2023-03-03T13:50:23.472Z,9.96
2023-03-03T13:55:48.744Z,9.79
2023-03-03T14:01:18.830Z,9.65
2023-03-03T14:06:19.129Z,9.73
2023-03-03T14:11:20.089Z,9.79
2023-03-03T14:16:19.543Z,9.74
2023-03-03T14:21:19.523Z,9.64
2023-03-03T14:26:17.878Z,9.64
2023-03-03T14:31:23.266Z,9.67
2023-03-03T14:36:33.214Z,9.57
2023-03-03T14:41:42.539Z,9.55
2023-03-03T14:46:45.551Z,9.52
2023-03-03T14:51:49.598Z,9.45
2023-03-03T15:03:10.787Z,9.38
2023-03-03T15:08:37.326Z,9.33
2023-03-03T15:13:37.905Z,9.25
2023-03-03T15:18:53.283Z,9.28
2023-03-03T15:24:02.550Z,9.16
2023-03-03T15:29:09.422Z,9.13
2023-03-03T15:34:18.394Z,9.06
2023-03-03T15:39:18.748Z,8.97
2023-03-03T15:44:19.035Z,9.09
2023-03-03T15:49:39.909Z,8.92
2023-03-03T15:54:41.297Z,8.74
2023-03-03T15:59:54.010Z,8.66
2023-03-03T16:04:54.678Z,8.43
2023-03-03T16:10:29.480Z,8.68
2023-03-03T16:15:27.012Z,8.48
2023-03-03T16:20:43.086Z,8.26
2023-03-03T16:25:59.825Z,8.18
2023-03-03T16:31:12.722Z,8.06
2023-03-03T16:36:18.385Z,8.08
2023-03-03T16:41:29.696Z,8.23
2023-03-03T16:46:41.476Z,8.04
2023-03-03T16:51:57.255Z,8.06
2023-03-03T16:57:09.628Z,8.22
2023-03-03T17:02:17.657Z,8.04
2023-03-03T17:07:34.414Z,8.08
2023-03-03T17:12:38.774Z,8.04
2023-03-03T17:17:41.753Z,8.11
2023-03-03T17:22:53.405Z,8.05
2023-03-03T17:28:13.159Z,7.95
2023-03-03T17:33:15.216Z,7.84
2023-03-03T17:38:15.881Z,7.99
2023-03-03T17:43:16.222Z,7.94
2023-03-03T17:48:35.496Z,7.94
2023-03-03T17:53:39.668Z,7.87
2023-03-03T17:58:46.673Z,7.74
2023-03-03T18:03:50.859Z,7.66
2023-03-03T18:09:21.666Z,7.73
2023-03-03T18:15:00.078Z,7.74
2023-03-03T18:20:07.372Z,7.69
2023-03-03T18:25:16.866Z,7.72
2023-03-03T18:30:20.689Z,7.60
2023-03-03T18:35:25.047Z,7.68
2023-03-03T18:40:29.335Z,7.56
2023-03-03T18:45:31.106Z,7.58
2023-03-03T18:50:35.473Z,7.69
2023-03-03T18:56:04.335Z,7.54
2023-03-03T19:01:25.404Z,7.55
2023-03-03T19:06:47.428Z,7.45
2023-03-03T19:11:49.451Z,7.41
2023-03-03T19:16:53.539Z,7.32
2023-03-03T19:21:52.563Z,7.25
2023-03-03T19:27:02.498Z,7.31
2023-03-03T19:32:18.256Z,7.30
2023-03-03T19:37:29.433Z,7.30
2023-03-03T19:42:45.560Z,7.36
2023-03-03T19:47:56.418Z,7.12
2023-03-03T19:53:22.527Z,7.07
2023-03-03T19:58:32.387Z,6.92
2023-03-03T20:03:51.605Z,6.91
2023-03-03T20:08:58.345Z,6.84
2023-03-03T20:14:12.276Z,6.76
2023-03-03T20:19:30.465Z,6.92
2023-03-03T20:24:29.756Z,6.98
2023-03-03T20:29:46.921Z,6.99
2023-03-03T20:34:56.273Z,6.79
2023-03-03T20:40:06.971Z,6.80
2023-03-03T20:45:07.889Z,6.79
2023-03-03T20:50:19.082Z,6.87
2023-03-03T20:55:38.596Z,6.88
2023-03-03T21:01:01.605Z,6.92
2023-03-03T21:06:03.313Z,6.87
2023-03-03T21:11:05.266Z,7.00
2023-03-03T21:16:09.620Z,6.98
2023-03-03T21:21:11.600Z,6.90
2023-03-03T21:26:11.308Z,6.98
2023-03-03T21:31:20.560Z,7.05
2023-03-03T21:36:23.475Z,7.14
2023-03-03T21:41:21.152Z,7.06
2023-03-03T21:46:22.894Z,6.96
2023-03-03T21:51:32.092Z,7.05
2023-03-03T21:56:31.340Z,6.90
2023-03-03T22:01:30.097Z,7.03
2023-03-03T22:06:40.534Z,7.02
2023-03-03T22:11:42.244Z,7.08
2023-03-03T22:16:44.990Z,7.04
2023-03-03T22:21:46.923Z,7.01
2023-03-03T22:26:45.698Z,6.98
2023-03-03T22:31:45.470Z,7.06
2023-03-03T22:36:46.874Z,7.22
2023-03-03T22:41:47.954Z,7.25
2023-03-03T22:46:45.592Z,7.33
2023-03-03T22:51:49.414Z,7.28
2023-03-03T22:56:51.848Z,7.60
2023-03-03T23:01:53.125Z,7.55
2023-03-03T23:07:03.266Z,7.44
2023-03-03T23:12:02.672Z,7.52
2023-03-03T23:17:10.510Z,7.72
2023-03-03T23:22:15.535Z,7.72
2023-03-03T23:27:16.822Z,7.57
2023-03-03T23:32:15.011Z,7.68
2023-03-03T23:37:19.251Z,7.58
2023-03-03T23:42:20.121Z,7.68
2023-03-03T23:47:21.761Z,7.68
2023-03-03T23:52:23.020Z,7.66
2023-03-03T23:57:25.719Z,7.69
